sensor_id;sensor_type;location;lat;lon;timestamp;P1;durP1;ratioP1;P2;durP2;ratioP2
78116;SDS011;69042;59.120;37.904;2024-02-21T00:01:57;6.38;;;2.70;;
78116;SDS011;69042;59.120;37.904;2024-02-21T00:04:24;7.00;;;2.92;;
78116;SDS011;69042;59.120;37.904;2024-02-21T00:06:50;5.25;;;2.30;;
78116;SDS011;69042;59.120;37.904;2024-02-21T00:09:16;7.57;;;3.45;;
78116;SDS011;69042;59.120;37.904;2024-02-21T00:11:45;6.53;;;2.75;;
78116;SDS011;69042;59.120;37.904;2024-02-21T00:14:11;7.50;;;3.30;;
78116;SDS011;69042;59.120;37.904;2024-02-21T00:16:38;6.25;;;2.88;;
78116;SDS011;69042;59.120;37.904;2024-02-21T00:19:04;6.70;;;2.95;;
78116;SDS011;69042;59.120;37.904;2024-02-21T00:21:31;7.35;;;2.85;;
78116;SDS011;69042;59.120;37.904;2024-02-21T00:23:57;11.18;;;3.50;;
78116;SDS011;69042;59.120;37.904;2024-02-21T00:26:23;7.40;;;3.47;;
78116;SDS011;69042;59.120;37.904;2024-02-21T00:28:51;6.50;;;3.22;;
78116;SDS011;69042;59.120;37.904;2024-02-21T00:31:18;7.05;;;2.92;;
78116;SDS011;69042;59.120;37.904;2024-02-21T00:33:44;6.80;;;3.03;;
78116;SDS011;69042;59.120;37.904;2024-02-21T00:36:11;6.13;;;3.17;;
78116;SDS011;69042;59.120;37.904;2024-02-21T00:38:37;7.82;;;3.60;;
78116;SDS011;69042;59.120;37.904;2024-02-21T00:41:03;6.43;;;3.08;;
78116;SDS011;69042;59.120;37.904;2024-02-21T00:43:30;6.97;;;2.75;;
78116;SDS011;69042;59.120;37.904;2024-02-21T00:45:56;8.00;;;3.10;;
78116;SDS011;69042;59.120;37.904;2024-02-21T00:48:23;6.60;;;2.78;;
78116;SDS011;69042;59.120;37.904;2024-02-21T00:50:49;7.05;;;2.97;;
78116;SDS011;69042;59.120;37.904;2024-02-21T00:53:16;7.15;;;3.05;;
78116;SDS011;69042;59.120;37.904;2024-02-21T00:55:42;6.55;;;2.95;;
78116;SDS011;69042;59.120;37.904;2024-02-21T00:58:09;7.22;;;3.63;;
78116;SDS011;69042;59.120;37.904;2024-02-21T01:00:35;7.25;;;3.30;;
78116;SDS011;69042;59.120;37.904;2024-02-21T01:03:02;6.78;;;3.13;;
78116;SDS011;69042;59.120;37.904;2024-02-21T01:05:28;7.50;;;3.00;;
78116;SDS011;69042;59.120;37.904;2024-02-21T01:07:55;8.75;;;2.95;;
78116;SDS011;69042;59.120;37.904;2024-02-21T01:10:21;7.25;;;3.15;;
78116;SDS011;69042;59.120;37.904;2024-02-21T01:12:48;7.07;;;3.00;;
78116;SDS011;69042;59.120;37.904;2024-02-21T01:15:15;8.23;;;3.28;;
78116;SDS011;69042;59.120;37.904;2024-02-21T01:17:41;5.35;;;2.65;;
78116;SDS011;69042;59.120;37.904;2024-02-21T01:20:08;7.07;;;3.20;;
78116;SDS011;69042;59.120;37.904;2024-02-21T01:22:36;7.90;;;3.15;;
78116;SDS011;69042;59.120;37.904;2024-02-21T01:25:03;6.22;;;2.63;;
78116;SDS011;69042;59.120;37.904;2024-02-21T01:27:29;6.95;;;2.85;;
78116;SDS011;69042;59.120;37.904;2024-02-21T01:29:56;7.50;;;2.80;;
78116;SDS011;69042;59.120;37.904;2024-02-21T01:32:22;7.43;;;3.15;;
78116;SDS011;69042;59.120;37.904;2024-02-21T01:34:50;7.70;;;3.15;;
78116;SDS011;69042;59.120;37.904;2024-02-21T01:37:17;7.68;;;3.53;;
78116;SDS011;69042;59.120;37.904;2024-02-21T01:39:43;6.18;;;2.97;;
78116;SDS011;69042;59.120;37.904;2024-02-21T01:42:10;9.20;;;3.92;;
78116;SDS011;69042;59.120;37.904;2024-02-21T01:44:36;7.50;;;3.65;;
78116;SDS011;69042;59.120;37.904;2024-02-21T01:47:04;9.27;;;4.68;;
78116;SDS011;69042;59.120;37.904;2024-02-21T01:49:30;7.13;;;3.35;;
78116;SDS011;69042;59.120;37.904;2024-02-21T01:51:58;7.78;;;3.78;;
78116;SDS011;69042;59.120;37.904;2024-02-21T01:54:25;7.43;;;3.15;;
78116;SDS011;69042;59.120;37.904;2024-02-21T01:56:54;8.65;;;3.58;;
78116;SDS011;69042;59.120;37.904;2024-02-21T01:59:21;8.55;;;3.88;;
78116;SDS011;69042;59.120;37.904;2024-02-21T02:01:48;7.13;;;3.50;;
78116;SDS011;69042;59.120;37.904;2024-02-21T02:04:16;8.05;;;3.92;;
78116;SDS011;69042;59.120;37.904;2024-02-21T02:06:42;7.05;;;3.67;;
78116;SDS011;69042;59.120;37.904;2024-02-21T02:09:10;7.85;;;3.55;;
78116;SDS011;69042;59.120;37.904;2024-02-21T02:11:37;8.07;;;3.50;;
78116;SDS011;69042;59.120;37.904;2024-02-21T02:14:03;9.60;;;3.97;;
78116;SDS011;69042;59.120;37.904;2024-02-21T02:16:30;9.13;;;3.80;;
78116;SDS011;69042;59.120;37.904;2024-02-21T02:18:56;7.40;;;3.33;;
78116;SDS011;69042;59.120;37.904;2024-02-21T02:23:55;8.73;;;4.07;;
78116;SDS011;69042;59.120;37.904;2024-02-21T02:26:22;8.20;;;3.70;;
78116;SDS011;69042;59.120;37.904;2024-02-21T02:28:49;7.90;;;4.03;;
78116;SDS011;69042;59.120;37.904;2024-02-21T02:31:15;7.97;;;3.53;;
78116;SDS011;69042;59.120;37.904;2024-02-21T02:33:42;7.85;;;3.70;;
78116;SDS011;69042;59.120;37.904;2024-02-21T02:36:10;9.10;;;4.20;;
78116;SDS011;69042;59.120;37.904;2024-02-21T02:38:36;8.32;;;3.92;;
78116;SDS011;69042;59.120;37.904;2024-02-21T02:41:03;10.77;;;5.03;;
78116;SDS011;69042;59.120;37.904;2024-02-21T02:43:29;8.85;;;4.88;;
78116;SDS011;69042;59.120;37.904;2024-02-21T02:45:57;8.65;;;4.22;;
78116;SDS011;69042;59.120;37.904;2024-02-21T02:48:23;11.52;;;4.85;;
78116;SDS011;69042;59.120;37.904;2024-02-21T02:50:50;8.35;;;3.95;;
78116;SDS011;69042;59.120;37.904;2024-02-21T02:53:16;8.48;;;4.80;;
78116;SDS011;69042;59.120;37.904;2024-02-21T02:55:43;10.10;;;4.50;;
78116;SDS011;69042;59.120;37.904;2024-02-21T02:58:09;10.45;;;4.50;;
78116;SDS011;69042;59.120;37.904;2024-02-21T03:00:36;9.50;;;4.68;;
78116;SDS011;69042;59.120;37.904;2024-02-21T03:03:02;9.10;;;4.75;;
78116;SDS011;69042;59.120;37.904;2024-02-21T03:05:29;9.00;;;4.43;;
78116;SDS011;69042;59.120;37.904;2024-02-21T03:07:56;10.27;;;4.95;;
78116;SDS011;69042;59.120;37.904;2024-02-21T03:10:22;11.35;;;5.28;;
78116;SDS011;69042;59.120;37.904;2024-02-21T03:12:49;9.52;;;5.00;;
78116;SDS011;69042;59.120;37.904;2024-02-21T03:15:18;9.05;;;4.65;;
78116;SDS011;69042;59.120;37.904;2024-02-21T03:17:45;8.88;;;4.43;;
78116;SDS011;69042;59.120;37.904;2024-02-21T03:20:12;10.30;;;5.32;;
78116;SDS011;69042;59.120;37.904;2024-02-21T03:22:39;11.60;;;5.80;;
78116;SDS011;69042;59.120;37.904;2024-02-21T03:25:06;11.90;;;5.10;;
78116;SDS011;69042;59.120;37.904;2024-02-21T03:27:34;12.90;;;6.35;;
78116;SDS011;69042;59.120;37.904;2024-02-21T03:30:04;11.07;;;5.43;;
78116;SDS011;69042;59.120;37.904;2024-02-21T03:32:31;11.77;;;5.70;;
78116;SDS011;69042;59.120;37.904;2024-02-21T03:34:58;11.57;;;5.47;;
78116;SDS011;69042;59.120;37.904;2024-02-21T03:37:24;11.60;;;5.20;;
78116;SDS011;69042;59.120;37.904;2024-02-21T03:39:50;12.23;;;5.60;;
78116;SDS011;69042;59.120;37.904;2024-02-21T03:42:18;10.23;;;5.65;;
78116;SDS011;69042;59.120;37.904;2024-02-21T03:44:44;10.82;;;5.18;;
78116;SDS011;69042;59.120;37.904;2024-02-21T03:47:11;10.00;;;5.28;;
78116;SDS011;69042;59.120;37.904;2024-02-21T03:49:37;11.15;;;5.50;;
78116;SDS011;69042;59.120;37.904;2024-02-21T03:52:04;12.77;;;6.43;;
78116;SDS011;69042;59.120;37.904;2024-02-21T03:54:31;12.18;;;6.20;;
78116;SDS011;69042;59.120;37.904;2024-02-21T03:56:57;10.13;;;4.95;;
78116;SDS011;69042;59.120;37.904;2024-02-21T03:59:23;10.98;;;5.47;;
78116;SDS011;69042;59.120;37.904;2024-02-21T04:01:53;11.40;;;5.68;;
78116;SDS011;69042;59.120;37.904;2024-02-21T04:04:20;10.07;;;5.70;;
78116;SDS011;69042;59.120;37.904;2024-02-21T04:06:47;13.50;;;6.50;;
78116;SDS011;69042;59.120;37.904;2024-02-21T04:09:14;13.35;;;6.93;;
78116;SDS011;69042;59.120;37.904;2024-02-21T04:11:43;10.27;;;5.40;;
78116;SDS011;69042;59.120;37.904;2024-02-21T04:14:10;10.93;;;5.40;;
78116;SDS011;69042;59.120;37.904;2024-02-21T04:16:37;12.65;;;5.75;;
78116;SDS011;69042;59.120;37.904;2024-02-21T04:19:04;10.63;;;6.00;;
78116;SDS011;69042;59.120;37.904;2024-02-21T04:21:31;11.02;;;5.18;;
78116;SDS011;69042;59.120;37.904;2024-02-21T04:23:59;11.27;;;5.65;;
78116;SDS011;69042;59.120;37.904;2024-02-21T04:26:26;13.82;;;6.55;;
78116;SDS011;69042;59.120;37.904;2024-02-21T04:28:52;13.15;;;6.57;;
78116;SDS011;69042;59.120;37.904;2024-02-21T04:31:19;11.82;;;6.03;;
78116;SDS011;69042;59.120;37.904;2024-02-21T04:33:45;13.32;;;6.68;;
78116;SDS011;69042;59.120;37.904;2024-02-21T04:36:12;14.07;;;6.50;;
78116;SDS011;69042;59.120;37.904;2024-02-21T04:38:38;12.57;;;6.47;;
78116;SDS011;69042;59.120;37.904;2024-02-21T04:41:06;12.32;;;6.22;;
78116;SDS011;69042;59.120;37.904;2024-02-21T04:43:34;14.90;;;6.63;;
78116;SDS011;69042;59.120;37.904;2024-02-21T04:46:00;13.55;;;6.93;;
78116;SDS011;69042;59.120;37.904;2024-02-21T04:48:27;11.90;;;6.18;;
78116;SDS011;69042;59.120;37.904;2024-02-21T04:50:54;14.10;;;6.45;;
78116;SDS011;69042;59.120;37.904;2024-02-21T04:53:20;13.98;;;6.55;;
78116;SDS011;69042;59.120;37.904;2024-02-21T04:55:47;14.23;;;6.90;;
78116;SDS011;69042;59.120;37.904;2024-02-21T04:58:13;13.25;;;6.65;;
78116;SDS011;69042;59.120;37.904;2024-02-21T05:00:40;14.05;;;6.95;;
78116;SDS011;69042;59.120;37.904;2024-02-21T05:03:06;14.95;;;7.30;;
78116;SDS011;69042;59.120;37.904;2024-02-21T05:05:33;17.40;;;7.28;;
78116;SDS011;69042;59.120;37.904;2024-02-21T05:07:59;13.25;;;6.60;;
78116;SDS011;69042;59.120;37.904;2024-02-21T05:10:26;14.88;;;6.78;;
78116;SDS011;69042;59.120;37.904;2024-02-21T05:12:53;14.25;;;6.93;;
78116;SDS011;69042;59.120;37.904;2024-02-21T05:15:19;15.45;;;7.10;;
78116;SDS011;69042;59.120;37.904;2024-02-21T05:17:46;14.90;;;7.18;;
78116;SDS011;69042;59.120;37.904;2024-02-21T05:20:13;16.05;;;7.57;;
78116;SDS011;69042;59.120;37.904;2024-02-21T05:22:39;21.50;;;11.57;;
78116;SDS011;69042;59.120;37.904;2024-02-21T05:25:06;15.27;;;7.07;;
78116;SDS011;69042;59.120;37.904;2024-02-21T05:27:33;14.73;;;7.38;;
78116;SDS011;69042;59.120;37.904;2024-02-21T05:30:00;14.25;;;6.78;;
78116;SDS011;69042;59.120;37.904;2024-02-21T05:32:27;14.68;;;6.47;;
78116;SDS011;69042;59.120;37.904;2024-02-21T05:34:53;13.10;;;6.72;;
78116;SDS011;69042;59.120;37.904;2024-02-21T05:37:20;13.70;;;7.20;;
78116;SDS011;69042;59.120;37.904;2024-02-21T05:39:47;16.42;;;7.28;;
78116;SDS011;69042;59.120;37.904;2024-02-21T05:45:30;16.70;;;7.40;;
78116;SDS011;69042;59.120;37.904;2024-02-21T05:47:57;12.88;;;5.50;;
78116;SDS011;69042;59.120;37.904;2024-02-21T05:50:23;15.55;;;6.88;;
78116;SDS011;69042;59.120;37.904;2024-02-21T05:52:56;14.02;;;6.97;;
78116;SDS011;69042;59.120;37.904;2024-02-21T05:55:22;12.38;;;7.10;;
78116;SDS011;69042;59.120;37.904;2024-02-21T05:57:49;13.00;;;6.25;;
78116;SDS011;69042;59.120;37.904;2024-02-21T06:00:16;13.15;;;6.03;;
